createdAt,value
2016-10-18T00:00:06.741Z,15.75
2016-10-18T00:01:06.882Z,15.75
2016-10-18T00:02:06.653Z,15.68
2016-10-18T00:03:06.580Z,15.78
2016-10-18T00:04:06.577Z,15.75
2016-10-18T00:05:06.558Z,15.81
2016-10-18T00:06:06.640Z,15.75
2016-10-18T00:07:06.513Z,15.76
2016-10-18T00:08:06.527Z,15.84
2016-10-18T00:09:06.425Z,15.82
2016-10-18T00:10:07.681Z,15.81
2016-10-18T00:11:07.815Z,15.86
2016-10-18T00:12:07.138Z,15.88
2016-10-18T00:13:21.041Z,15.88
2016-10-18T00:14:06.314Z,15.84
2016-10-18T00:15:21.301Z,15.79
2016-10-18T00:16:06.301Z,15.74
2016-10-18T00:17:07.207Z,15.76
2016-10-18T00:18:06.922Z,15.78
2016-10-18T00:19:06.197Z,15.74
2016-10-18T00:20:06.114Z,15.76
2016-10-18T00:21:06.140Z,15.78
2016-10-18T00:22:06.089Z,15.76
2016-10-18T00:23:06.355Z,15.78
2016-10-18T00:25:06.384Z,15.68
2016-10-18T00:26:06.641Z,15.67
2016-10-18T00:27:06.567Z,15.64
2016-10-18T00:28:05.926Z,15.7
2016-10-18T00:29:08.900Z,15.66
2016-10-18T00:30:06.252Z,15.61
2016-10-18T00:31:05.827Z,15.68
2016-10-18T00:32:05.796Z,15.63
2016-10-18T00:33:05.903Z,15.61
2016-10-18T00:34:05.720Z,15.6
2016-10-18T00:35:20.439Z,15.54
2016-10-18T00:36:05.821Z,15.63
2016-10-18T00:37:05.662Z,15.63
2016-10-18T00:38:05.631Z,15.51
2016-10-18T00:39:05.590Z,15.54
2016-10-18T00:40:05.929Z,15.61
2016-10-18T00:41:05.902Z,15.59
2016-10-18T00:42:05.513Z,15.54
2016-10-18T00:43:05.477Z,15.6
2016-10-18T00:44:05.493Z,15.57
2016-10-18T00:45:05.434Z,15.52
2016-10-18T00:46:20.482Z,15.48
2016-10-18T00:47:05.359Z,15.48
2016-10-18T00:48:20.078Z,15.49
2016-10-18T00:49:05.367Z,15.57
2016-10-18T00:50:05.307Z,15.45
2016-10-18T00:51:05.268Z,15.54
2016-10-18T00:52:05.275Z,15.46
2016-10-18T00:53:05.555Z,15.43
2016-10-18T00:54:05.793Z,15.46
2016-10-18T00:55:05.385Z,15.35
2016-10-18T00:56:05.408Z,15.33
2016-10-18T00:57:05.105Z,15.36
2016-10-18T00:58:05.058Z,15.35
2016-10-18T00:59:05.116Z,15.26
2016-10-18T01:00:05.063Z,15.26
2016-10-18T01:01:06.528Z,15.3
2016-10-18T01:02:04.953Z,15.36
2016-10-18T01:03:19.944Z,15.36
2016-10-18T01:04:04.891Z,15.26
2016-10-18T01:05:19.592Z,15.28
2016-10-18T01:06:04.830Z,15.26
2016-10-18T01:07:11.031Z,15.28
2016-10-18T01:08:04.824Z,15.33
2016-10-18T01:09:04.784Z,15.26
2016-10-18T01:10:04.872Z,15.31
2016-10-18T01:11:04.813Z,15.21
2016-10-18T01:12:04.944Z,15.26
2016-10-18T01:13:05.154Z,15.13
2016-10-18T01:14:04.652Z,15.2
2016-10-18T01:15:04.628Z,15.28
2016-10-18T01:16:04.571Z,15.24
2016-10-18T01:17:04.543Z,15.3
2016-10-18T01:18:19.832Z,15.33
2016-10-18T01:19:04.470Z,15.31
2016-10-18T01:20:04.484Z,15.38
2016-10-18T01:21:04.794Z,15.27
2016-10-18T01:22:04.393Z,15.24
2016-10-18T01:23:04.372Z,15.19
2016-10-18T01:24:04.734Z,15.19
2016-10-18T01:25:04.335Z,15.19
2016-10-18T01:26:04.321Z,15.11
2016-10-18T01:27:04.268Z,15.23
2016-10-18T01:28:04.827Z,15.2
2016-10-18T01:29:18.920Z,15.19
2016-10-18T01:30:04.153Z,15.27
2016-10-18T01:31:04.313Z,15.11
2016-10-18T01:32:04.182Z,15.19
2016-10-18T01:33:04.112Z,15.11
2016-10-18T01:34:04.182Z,15.13
2016-10-18T01:35:04.016Z,15.19
2016-10-18T01:36:04.386Z,15.19
2016-10-18T01:37:03.993Z,15.11
2016-10-18T01:38:03.938Z,15.11
2016-10-18T01:39:03.911Z,15.08
2016-10-18T01:40:03.877Z,15.06
2016-10-18T01:41:04.209Z,15.11
2016-10-18T01:42:18.553Z,15.03
2016-10-18T01:43:03.822Z,15.09
2016-10-18T01:44:18.495Z,15.06
2016-10-18T01:45:03.756Z,15.08
2016-10-18T01:46:03.747Z,15.17
2016-10-18T01:47:03.690Z,15.05
2016-10-18T01:48:03.660Z,15.02
2016-10-18T01:49:04.054Z,15.03
2016-10-18T01:50:04.241Z,15.09
2016-10-18T01:51:03.939Z,15.08
2016-10-18T01:52:03.538Z,14.95
2016-10-18T01:53:03.514Z,15.01
2016-10-18T01:54:04.060Z,15.01
2016-10-18T01:55:03.632Z,14.99
2016-10-18T01:56:03.439Z,15.12
2016-10-18T01:57:03.464Z,15.05
2016-10-18T01:58:03.750Z,15.05
2016-10-18T01:59:03.717Z,15.06
2016-10-18T02:00:03.315Z,15.05
2016-10-18T02:01:03.284Z,14.98
2016-10-18T02:02:03.247Z,14.98
2016-10-18T02:03:03.271Z,14.88
2016-10-18T02:04:03.189Z,14.95
2016-10-18T02:05:03.527Z,14.9
2016-10-18T02:06:03.150Z,15.02
2016-10-18T02:07:03.120Z,14.98
2016-10-18T02:08:03.392Z,14.98
2016-10-18T02:09:03.083Z,15.01
2016-10-18T02:10:03.090Z,14.98
2016-10-18T02:11:02.999Z,14.98
2016-10-18T02:12:04.876Z,15.08
2016-10-18T02:13:02.940Z,15.03
2016-10-18T02:14:02.908Z,15.01
2016-10-18T02:15:03.245Z,15.05
2016-10-18T02:16:03.248Z,15.12
2016-10-18T02:17:17.546Z,15.05
2016-10-18T02:18:03.171Z,15.02
2016-10-18T02:19:02.796Z,15.06
2016-10-18T02:20:02.772Z,15.02
2016-10-18T02:21:02.734Z,15.03
2016-10-18T02:22:02.719Z,15.06
2016-10-18T02:23:03.082Z,15.03
2016-10-18T02:24:03.799Z,14.99
2016-10-18T02:25:02.680Z,14.95
2016-10-18T02:26:02.756Z,14.9
2016-10-18T02:27:02.547Z,14.98
2016-10-18T02:28:02.875Z,14.94
2016-10-18T02:29:03.637Z,15.02
2016-10-18T02:30:17.427Z,15.01
2016-10-18T02:31:02.595Z,14.99
2016-10-18T02:32:02.751Z,15.03
2016-10-18T02:33:02.732Z,14.95
2016-10-18T02:34:02.465Z,15.01
2016-10-18T02:35:02.415Z,14.93
2016-10-18T02:36:02.382Z,14.94
2016-10-18T02:37:02.268Z,14.93
2016-10-18T02:38:02.242Z,14.9
2016-10-18T02:39:02.234Z,14.93
2016-10-18T02:40:02.266Z,15.05
2016-10-18T02:41:02.189Z,15.06
2016-10-18T02:42:02.940Z,15.03
2016-10-18T02:43:02.107Z,15.02
2016-10-18T02:44:03.731Z,15.03
2016-10-18T02:45:02.735Z,15.03
2016-10-18T02:46:02.406Z,15.01
2016-10-18T02:47:16.717Z,15.06
2016-10-18T02:48:01.969Z,15.05
2016-10-18T02:49:01.975Z,15.08
2016-10-18T02:50:01.938Z,15.11
2016-10-18T02:51:02.567Z,15.11
2016-10-18T02:52:01.874Z,15.12
2016-10-18T02:53:02.185Z,15.12
2016-10-18T02:54:01.782Z,15.13
2016-10-18T02:55:01.741Z,15.19
2016-10-18T02:56:01.725Z,15.17
2016-10-18T02:57:01.689Z,15.11
2016-10-18T02:58:01.690Z,15.08
2016-10-18T02:59:01.997Z,15.11
2016-10-18T03:00:01.614Z,15.13
2016-10-18T03:01:02.082Z,15.12
2016-10-18T03:02:01.563Z,15.21
2016-10-18T03:03:01.572Z,15.2
2016-10-18T03:04:01.503Z,15.13
2016-10-18T03:05:01.463Z,15.11
2016-10-18T03:06:01.440Z,15.12
2016-10-18T03:08:01.486Z,15.06
2016-10-18T03:09:01.382Z,15.05
2016-10-18T03:10:01.338Z,15.09
2016-10-18T03:11:01.313Z,15.05
2016-10-18T03:12:01.273Z,15.06
2016-10-18T03:13:01.624Z,15.03
2016-10-18T03:15:01.192Z,14.99
2016-10-18T03:16:01.171Z,15.03
2016-10-18T03:17:01.126Z,15.08
2016-10-18T03:18:01.092Z,15.06
2016-10-18T03:19:01.077Z,15.09
2016-10-18T03:20:01.400Z,15.01
2016-10-18T03:21:15.752Z,15.11
2016-10-18T03:22:01.473Z,15.03
2016-10-18T03:23:00.987Z,15.11
2016-10-18T03:24:00.934Z,15.12
2016-10-18T03:25:00.943Z,15.17
2016-10-18T03:26:01.171Z,15.19
2016-10-18T03:27:00.883Z,15.26
2016-10-18T03:28:15.859Z,15.17
2016-10-18T03:29:00.801Z,15.2
2016-10-18T03:30:15.506Z,15.15
2016-10-18T03:31:00.759Z,15.17
2016-10-18T03:33:01.072Z,15.17
2016-10-18T03:34:00.659Z,15.26
2016-10-18T03:35:00.652Z,15.33
2016-10-18T03:36:00.637Z,15.43
2016-10-18T03:37:00.603Z,15.42
2016-10-18T03:38:00.542Z,15.42
2016-10-18T03:39:00.541Z,15.36
2016-10-18T03:40:00.579Z,15.42
2016-10-18T03:41:00.469Z,15.35
2016-10-18T03:42:00.526Z,15.52
2016-10-18T03:43:00.402Z,15.41
2016-10-18T03:44:00.440Z,15.42
2016-10-18T03:45:00.691Z,15.41
2016-10-18T03:46:00.331Z,15.45
2016-10-18T03:47:01.021Z,15.48
2016-10-18T03:48:00.316Z,15.51
2016-10-18T03:49:00.235Z,15.38
2016-10-18T03:50:00.575Z,15.54
2016-10-18T03:51:00.539Z,15.52
2016-10-18T03:52:00.202Z,15.42
2016-10-18T03:53:00.168Z,15.48
2016-10-18T03:54:00.242Z,15.39
2016-10-18T03:55:00.188Z,15.26
2016-10-18T03:56:00.017Z,15.36
2016-10-18T03:57:00.523Z,15.31
2016-10-18T03:57:59.965Z,15.27
2016-10-18T03:59:00.513Z,15.26
2016-10-18T03:59:59.908Z,15.24
2016-10-18T04:01:14.971Z,15.35
2016-10-18T04:01:59.883Z,15.24
2016-10-18T04:03:00.262Z,15.31
2016-10-18T04:04:00.222Z,15.38
2016-10-18T04:05:00.243Z,15.31
2016-10-18T04:06:00.165Z,15.31
2016-10-18T04:06:59.716Z,15.33
2016-10-18T04:07:59.700Z,15.31
2016-10-18T04:08:59.657Z,15.33
2016-10-18T04:10:00.014Z,15.33
2016-10-18T04:10:59.612Z,15.27
2016-10-18T04:12:00.259Z,15.21
2016-10-18T04:12:59.538Z,15.26
2016-10-18T04:13:59.519Z,15.23
2016-10-18T04:14:59.551Z,15.26
2016-10-18T04:16:14.687Z,15.23
2016-10-18T04:16:59.429Z,15.3
2016-10-18T04:17:59.415Z,15.27
2016-10-18T04:18:59.418Z,15.23
2016-10-18T04:19:59.332Z,15.21
2016-10-18T04:20:59.450Z,15.27
2016-10-18T04:21:59.322Z,15.21
2016-10-18T04:22:59.258Z,15.26
2016-10-18T04:23:59.666Z,15.28
2016-10-18T04:24:59.241Z,15.27
2016-10-18T04:25:59.611Z,15.35
2016-10-18T04:27:13.897Z,15.35
2016-10-18T04:27:59.110Z,15.39
2016-10-18T04:28:59.102Z,15.46
2016-10-18T04:29:59.067Z,15.39
2016-10-18T04:30:59.055Z,15.39
2016-10-18T04:31:59.020Z,15.36
2016-10-18T04:32:58.982Z,15.36
2016-10-18T04:33:59.403Z,15.38
2016-10-18T04:34:58.939Z,15.43
2016-10-18T04:35:58.998Z,15.51
2016-10-18T04:36:58.922Z,15.54
2016-10-18T04:37:58.853Z,15.59
2016-10-18T04:38:59.159Z,15.54
2016-10-18T04:39:58.850Z,15.66
2016-10-18T04:40:58.764Z,15.61
2016-10-18T04:41:59.125Z,15.74
2016-10-18T04:42:59.050Z,15.78
2016-10-18T04:43:59.324Z,15.68
2016-10-18T04:44:58.661Z,15.76
2016-10-18T04:46:58.607Z,15.66
2016-10-18T04:48:58.551Z,15.61
2016-10-18T04:49:59.091Z,15.64
2016-10-18T04:50:58.491Z,15.66
2016-10-18T04:52:13.749Z,15.7
2016-10-18T04:52:58.417Z,15.59
2016-10-18T04:54:13.125Z,15.59
2016-10-18T04:54:58.346Z,15.61
2016-10-18T04:55:58.350Z,15.64
2016-10-18T04:56:58.302Z,15.57
2016-10-18T04:57:58.283Z,15.59
2016-10-18T04:58:58.263Z,15.49
2016-10-18T04:59:58.236Z,15.51
2016-10-18T05:00:58.731Z,15.54
2016-10-18T05:01:58.157Z,15.51
2016-10-18T05:02:58.207Z,15.57
2016-10-18T05:03:58.456Z,15.51
2016-10-18T05:04:58.081Z,15.54
2016-10-18T05:05:58.044Z,15.57
2016-10-18T05:06:58.015Z,15.61
2016-10-18T05:07:57.995Z,15.56
2016-10-18T05:08:57.958Z,15.63
2016-10-18T05:09:57.953Z,15.7
2016-10-18T05:10:57.971Z,15.67
2016-10-18T05:11:57.914Z,15.56
2016-10-18T05:12:58.269Z,15.61
2016-10-18T05:13:57.813Z,15.64
2016-10-18T05:14:57.788Z,15.63
2016-10-18T05:15:57.766Z,15.7
2016-10-18T05:16:57.745Z,15.7
2016-10-18T05:17:57.719Z,15.64
2016-10-18T05:18:57.709Z,15.6
2016-10-18T05:19:58.296Z,15.61
2016-10-18T05:21:12.366Z,15.68
2016-10-18T05:21:57.590Z,15.61
2016-10-18T05:23:57.628Z,15.78
2016-10-18T05:24:57.528Z,15.81
2016-10-18T05:25:57.523Z,15.79
2016-10-18T05:27:12.181Z,15.86
2016-10-18T05:27:57.477Z,15.85
2016-10-18T05:28:57.394Z,15.88
2016-10-18T05:29:57.729Z,15.86
2016-10-18T05:30:57.357Z,15.85
2016-10-18T05:31:57.359Z,15.84
2016-10-18T05:32:57.664Z,15.96
2016-10-18T05:34:26.708Z,15.85
2016-10-18T05:34:57.265Z,15.99
2016-10-18T05:35:57.213Z,15.94
2016-10-18T05:36:57.527Z,16.01
2016-10-18T05:37:57.157Z,15.94
2016-10-18T05:39:57.154Z,16
2016-10-18T05:41:11.789Z,16
2016-10-18T05:41:57.035Z,16.06
2016-10-18T05:42:57.002Z,16
2016-10-18T05:43:57.037Z,16.06
2016-10-18T05:44:56.957Z,16.06
2016-10-18T05:45:56.940Z,16.06
2016-10-18T05:46:56.882Z,16.09
2016-10-18T05:48:11.600Z,16.07
2016-10-18T05:48:56.849Z,16.04
2016-10-18T05:50:03.054Z,16.09
2016-10-18T05:50:56.828Z,16.11
2016-10-18T05:51:56.871Z,16.11
2016-10-18T05:52:56.724Z,16.22
2016-10-18T05:53:57.098Z,16.16
2016-10-18T05:54:56.699Z,16.25
2016-10-18T05:55:56.775Z,16.23
2016-10-18T05:57:11.656Z,16.25
2016-10-18T05:57:56.647Z,16.25
2016-10-18T05:58:56.550Z,16.38
2016-10-18T05:59:56.950Z,16.31
2016-10-18T06:00:56.503Z,16.35
2016-10-18T06:01:56.468Z,16.38
2016-10-18T06:02:56.856Z,16.48
2016-10-18T06:04:56.410Z,16.44
2016-10-18T06:05:56.377Z,16.42
2016-10-18T06:06:56.697Z,16.44
2016-10-18T06:07:56.297Z,16.4
2016-10-18T06:08:56.304Z,16.45
2016-10-18T06:09:56.278Z,16.5
2016-10-18T06:10:56.209Z,16.49
2016-10-18T06:11:56.225Z,16.49
2016-10-18T06:12:56.557Z,16.53
2016-10-18T06:13:56.177Z,16.52
2016-10-18T06:15:11.141Z,16.55
2016-10-18T06:15:56.126Z,16.55
2016-10-18T06:16:56.151Z,16.58
2016-10-18T06:17:56.019Z,16.62
2016-10-18T06:18:56.012Z,16.56
2016-10-18T06:19:55.960Z,16.62
2016-10-18T06:20:55.967Z,16.63
2016-10-18T06:21:55.924Z,16.56
2016-10-18T06:22:55.897Z,16.62
2016-10-18T06:23:56.301Z,16.59
2016-10-18T06:24:56.973Z,16.63
2016-10-18T06:25:55.807Z,16.63
2016-10-18T06:26:55.885Z,16.7
2016-10-18T06:27:55.776Z,16.65
2016-10-18T06:29:10.460Z,16.7
2016-10-18T06:29:55.719Z,16.6
2016-10-18T06:30:55.671Z,16.63
2016-10-18T06:31:55.656Z,16.73
2016-10-18T06:32:55.623Z,16.62
2016-10-18T06:33:55.589Z,16.59
2016-10-18T06:34:55.567Z,16.62
2016-10-18T06:35:56.610Z,16.7
2016-10-18T06:36:55.510Z,16.67
2016-10-18T06:37:55.477Z,16.65
2016-10-18T06:38:55.431Z,16.68
2016-10-18T06:39:55.443Z,16.67
2016-10-18T06:40:55.507Z,16.71
2016-10-18T06:42:10.096Z,16.78
2016-10-18T06:42:55.335Z,16.83
2016-10-18T06:43:55.655Z,16.83
2016-10-18T06:44:55.335Z,16.74
2016-10-18T06:45:55.259Z,16.78
2016-10-18T06:46:55.244Z,16.83
2016-10-18T06:47:55.576Z,16.81
2016-10-18T06:48:55.168Z,16.83
2016-10-18T06:49:55.155Z,16.81
2016-10-18T06:50:55.190Z,16.83
2016-10-18T06:51:55.262Z,16.85
2016-10-18T06:52:55.119Z,16.83
2016-10-18T06:53:55.074Z,16.95
2016-10-18T06:54:55.490Z,16.98
2016-10-18T06:55:55.154Z,16.99
2016-10-18T06:56:55.258Z,16.95
2016-10-18T06:57:54.950Z,17.03
2016-10-18T06:58:54.881Z,16.93
2016-10-18T06:59:54.881Z,16.96
2016-10-18T07:00:54.899Z,17.06
2016-10-18T07:01:54.849Z,17.08
2016-10-18T07:02:55.242Z,17.13
2016-10-18T07:03:54.762Z,17.04
2016-10-18T07:04:55.092Z,17.1
2016-10-18T07:05:54.691Z,17.08
2016-10-18T07:06:54.710Z,17.14
2016-10-18T07:07:55.020Z,17.14
2016-10-18T07:09:01.070Z,17.18
2016-10-18T07:09:55.009Z,17.22
2016-10-18T07:11:09.749Z,17.1
2016-10-18T07:11:54.540Z,17.1
2016-10-18T07:12:54.885Z,17.13
2016-10-18T07:13:54.943Z,17.28
2016-10-18T07:14:54.444Z,17.18
2016-10-18T07:15:55.005Z,17.08
2016-10-18T07:16:54.400Z,17.03
2016-10-18T07:17:54.378Z,17.04
2016-10-18T07:18:54.488Z,16.88
2016-10-18T07:19:54.375Z,16.93
2016-10-18T07:20:54.373Z,16.93
2016-10-18T07:22:08.983Z,17.11
2016-10-18T07:22:54.240Z,17.13
2016-10-18T07:24:08.943Z,17.11
2016-10-18T07:24:54.349Z,17.11
2016-10-18T07:25:54.141Z,17.06
2016-10-18T07:26:54.121Z,17.06
2016-10-18T07:27:54.085Z,17.14
2016-10-18T07:28:54.081Z,16.99
2016-10-18T07:29:54.393Z,17.04
2016-10-18T07:30:54.352Z,17.14
2016-10-18T07:31:53.988Z,17.18
2016-10-18T07:33:09.005Z,17.33
2016-10-18T07:33:53.986Z,17.2
2016-10-18T07:34:53.901Z,17.29
2016-10-18T07:35:53.906Z,17.29
2016-10-18T07:36:54.563Z,17.36
2016-10-18T07:37:53.824Z,17.35
2016-10-18T07:38:54.144Z,17.44
2016-10-18T07:40:08.771Z,17.35
2016-10-18T07:40:54.206Z,17.46
2016-10-18T07:41:53.799Z,17.54
2016-10-18T07:42:53.807Z,17.4
2016-10-18T07:44:08.418Z,17.38
2016-10-18T07:44:53.970Z,17.47
2016-10-18T07:45:53.964Z,17.28
2016-10-18T07:46:53.917Z,17.32
2016-10-18T07:47:53.917Z,17.47
2016-10-18T07:48:53.608Z,17.47
2016-10-18T07:49:53.860Z,17.47
2016-10-18T07:50:53.485Z,17.67
2016-10-18T07:52:53.440Z,17.66
2016-10-18T07:53:53.379Z,17.62
2016-10-18T07:54:53.765Z,17.7
2016-10-18T07:55:53.811Z,17.69
2016-10-18T07:56:53.344Z,17.73
2016-10-18T07:57:54.147Z,17.74
2016-10-18T07:58:53.690Z,17.84
2016-10-18T07:59:53.614Z,17.82
2016-10-18T08:00:53.193Z,17.88
2016-10-18T08:01:53.148Z,17.94
2016-10-18T08:02:53.134Z,17.99
2016-10-18T08:03:53.126Z,18.06
2016-10-18T08:04:53.600Z,18.03
2016-10-18T08:05:53.198Z,18.03
2016-10-18T08:06:53.024Z,18.07
2016-10-18T08:07:53.000Z,18
2016-10-18T08:08:53.687Z,17.97
2016-10-18T08:09:52.936Z,17.94
2016-10-18T08:10:52.983Z,17.92
2016-10-18T08:11:52.953Z,18.03
2016-10-18T08:12:53.225Z,18.06
2016-10-18T08:13:52.862Z,17.95
2016-10-18T08:14:53.221Z,18.07
2016-10-18T08:15:53.539Z,18.12
2016-10-18T08:16:53.753Z,18.17
2016-10-18T08:17:52.736Z,18.17
2016-10-18T08:18:52.753Z,18.19
2016-10-18T08:20:52.688Z,18.4
2016-10-18T08:21:52.634Z,18.39
2016-10-18T08:22:52.615Z,18.39
2016-10-18T08:23:52.605Z,18.42
2016-10-18T08:24:52.597Z,18.42
2016-10-18T08:25:52.646Z,18.43
2016-10-18T08:26:58.802Z,18.33
2016-10-18T08:27:52.946Z,18.5
2016-10-18T08:28:52.427Z,18.54
2016-10-18T08:29:52.511Z,18.55
2016-10-18T08:30:52.385Z,18.55
2016-10-18T08:31:52.351Z,18.65
2016-10-18T08:32:52.869Z,18.76
2016-10-18T08:33:52.279Z,18.61
2016-10-18T08:34:52.402Z,18.57
2016-10-18T08:35:52.672Z,18.61
2016-10-18T08:36:52.606Z,18.67
2016-10-18T08:38:07.277Z,18.72
2016-10-18T08:38:52.150Z,18.72
2016-10-18T08:39:52.486Z,18.77
2016-10-18T08:40:53.504Z,18.65
2016-10-18T08:41:52.353Z,18.77
2016-10-18T08:42:52.044Z,18.7
2016-10-18T08:43:52.051Z,18.74
2016-10-18T08:44:52.346Z,18.79
2016-10-18T08:45:52.142Z,18.7
2016-10-18T08:46:51.973Z,18.73
2016-10-18T08:47:51.944Z,18.74
2016-10-18T08:48:51.894Z,18.8
2016-10-18T08:49:51.900Z,18.9
2016-10-18T08:50:52.240Z,18.92
2016-10-18T08:51:51.870Z,18.83
2016-10-18T08:53:06.517Z,18.91
2016-10-18T08:53:51.746Z,18.99
2016-10-18T08:54:51.754Z,19.08
2016-10-18T08:55:51.698Z,18.98
2016-10-18T08:56:51.694Z,19.08
2016-10-18T08:57:51.647Z,18.97
2016-10-18T08:58:51.651Z,19.02
2016-10-18T09:00:06.354Z,19.11
2016-10-18T09:00:52.146Z,18.97
2016-10-18T09:01:52.179Z,19.05
2016-10-18T09:02:51.505Z,19.11
2016-10-18T09:03:51.882Z,18.99
2016-10-18T09:04:51.546Z,18.97
2016-10-18T09:05:51.911Z,18.87
2016-10-18T09:06:51.515Z,19.02
2016-10-18T09:07:51.498Z,19.1
2016-10-18T09:08:51.385Z,19.15
2016-10-18T09:09:51.392Z,19.32
2016-10-18T09:10:51.346Z,19.43
2016-10-18T09:11:51.268Z,19.36
2016-10-18T09:12:51.330Z,19.42
2016-10-18T09:13:51.262Z,19.36
2016-10-18T09:14:51.217Z,19.38
2016-10-18T09:15:51.556Z,19.23
2016-10-18T09:16:51.155Z,19.21
2016-10-18T09:17:51.304Z,19.21
2016-10-18T09:19:51.103Z,19.42
2016-10-18T09:20:51.065Z,19.4
2016-10-18T09:21:51.028Z,19.36
2016-10-18T09:22:51.347Z,19.4
2016-10-18T09:24:50.954Z,19.65
2016-10-18T09:26:05.664Z,19.6
2016-10-18T09:26:50.943Z,19.66
2016-10-18T09:27:50.855Z,19.63
2016-10-18T09:28:50.999Z,19.58
2016-10-18T09:29:51.599Z,19.7
2016-10-18T09:30:50.787Z,19.65
2016-10-18T09:31:50.802Z,19.72
2016-10-18T09:32:50.757Z,19.68
2016-10-18T09:33:50.731Z,19.61
2016-10-18T09:34:50.711Z,19.7
2016-10-18T09:35:50.833Z,19.36
2016-10-18T09:36:50.658Z,19.42
2016-10-18T09:37:50.592Z,19.35
2016-10-18T09:38:50.558Z,19.48
2016-10-18T09:39:50.889Z,19.47
2016-10-18T09:41:05.235Z,19.57
2016-10-18T09:41:50.559Z,19.58
2016-10-18T09:42:50.861Z,19.55
2016-10-18T09:43:50.472Z,19.4
2016-10-18T09:44:50.403Z,19.36
2016-10-18T09:45:51.205Z,19.31
2016-10-18T09:46:50.535Z,19.29
2016-10-18T09:47:50.805Z,19.38
2016-10-18T09:48:50.377Z,19.53
2016-10-18T09:49:50.359Z,19.48
2016-10-18T09:50:51.034Z,19.31
2016-10-18T09:51:50.888Z,19.36
2016-10-18T09:52:50.318Z,19.4
2016-10-18T09:54:50.595Z,19.32
2016-10-18T09:57:42.697Z,19.4
2016-10-18T09:58:14.480Z,19.4
2016-10-18T09:59:13.624Z,19.4
2016-10-18T10:00:13.881Z,19.51
2016-10-18T10:01:13.794Z,19.6
2016-10-18T10:02:13.118Z,19.68
2016-10-18T10:03:13.490Z,19.73
2016-10-18T10:04:13.194Z,19.75
2016-10-18T10:05:13.111Z,19.73
2016-10-18T10:06:13.559Z,19.79
2016-10-18T10:07:13.393Z,19.72
2016-10-18T10:08:28.073Z,19.48
2016-10-18T10:09:13.008Z,19.54
2016-10-18T10:10:12.985Z,19.6
2016-10-18T10:11:28.124Z,19.76
2016-10-18T10:12:12.904Z,19.72
2016-10-18T10:13:12.872Z,19.8
2016-10-18T10:14:12.822Z,19.97
2016-10-18T10:15:13.332Z,20
2016-10-18T10:16:13.180Z,20.06
2016-10-18T10:17:13.157Z,20.2
2016-10-18T10:18:12.743Z,20.21
2016-10-18T10:19:12.674Z,20.24
2016-10-18T10:20:13.042Z,20.15
2016-10-18T10:21:12.678Z,20.23
2016-10-18T10:22:12.931Z,20.27
2016-10-18T10:23:12.959Z,20.31
2016-10-18T10:24:12.552Z,20.3
2016-10-18T10:25:13.248Z,20.42
2016-10-18T10:26:12.802Z,20.46
2016-10-18T10:27:12.513Z,20.25
2016-10-18T10:28:12.454Z,20.25
2016-10-18T10:29:12.402Z,20.24
2016-10-18T10:31:12.376Z,20.28
2016-10-18T10:32:12.980Z,20.38
2016-10-18T10:33:12.339Z,20.53
2016-10-18T10:34:27.310Z,20.54
2016-10-18T10:35:12.971Z,20.62
2016-10-18T10:36:26.973Z,20.27
2016-10-18T10:37:14.242Z,20.39
2016-10-18T10:39:13.099Z,20.46
2016-10-18T10:40:12.752Z,20.35
2016-10-18T10:41:12.701Z,20.54
2016-10-18T10:42:13.325Z,20.43
2016-10-18T10:43:12.062Z,20.58
2016-10-18T10:44:12.049Z,20.68
2016-10-18T10:45:12.528Z,20.72
2016-10-18T10:46:12.490Z,20.84
2016-10-18T10:47:16.958Z,20.86
2016-10-18T10:48:12.072Z,20.71
2016-10-18T10:49:17.375Z,20.69
2016-10-18T10:50:12.281Z,20.53
2016-10-18T10:51:27.519Z,20.69
2016-10-18T10:52:12.789Z,20.66
2016-10-18T10:53:12.320Z,20.56
2016-10-18T10:54:12.394Z,20.64
2016-10-18T10:55:12.173Z,20.74
2016-10-18T10:57:26.527Z,20.49
2016-10-18T10:58:27.094Z,20.38
2016-10-18T10:59:12.011Z,20.39
2016-10-18T11:00:11.729Z,20.21
2016-10-18T11:01:11.998Z,20.24
2016-10-18T11:02:12.211Z,20.43
2016-10-18T11:03:11.557Z,20.38
2016-10-18T11:04:11.521Z,20.39
2016-10-18T11:05:11.693Z,20.56
2016-10-18T11:06:26.202Z,20.69
2016-10-18T11:07:11.485Z,20.66
2016-10-18T11:08:11.439Z,20.84
2016-10-18T11:09:26.164Z,20.95
2016-10-18T11:10:12.136Z,20.86
2016-10-18T11:11:12.109Z,20.42
2016-10-18T11:12:11.584Z,20.56
2016-10-18T11:13:11.245Z,20.54
2016-10-18T11:14:11.251Z,20.54
2016-10-18T11:15:11.530Z,20.66
2016-10-18T11:17:11.337Z,20.86
2016-10-18T11:18:26.250Z,20.93
2016-10-18T11:19:11.902Z,20.98
2016-10-18T11:20:11.357Z,21.04
2016-10-18T11:21:12.381Z,21.01
2016-10-18T11:22:11.105Z,20.99
2016-10-18T11:23:11.900Z,20.89
2016-10-18T11:24:11.123Z,20.69
2016-10-18T11:25:11.754Z,20.9
2016-10-18T11:26:12.885Z,20.84
2016-10-18T11:27:26.052Z,20.9
2016-10-18T11:28:11.035Z,20.84
2016-10-18T11:29:10.867Z,20.89
2016-10-18T11:30:12.248Z,20.84
2016-10-18T11:31:11.575Z,20.96
2016-10-18T11:32:11.239Z,20.87
2016-10-18T11:33:11.200Z,20.81
2016-10-18T11:34:10.752Z,20.86
2016-10-18T11:35:11.226Z,20.83
2016-10-18T11:36:10.695Z,20.91
2016-10-18T11:37:11.018Z,20.87
2016-10-18T11:38:25.476Z,20.95
2016-10-18T11:39:10.718Z,20.86
2016-10-18T11:41:10.829Z,20.84
2016-10-18T11:42:11.137Z,20.91
2016-10-18T11:43:10.922Z,20.84
2016-10-18T11:44:10.501Z,21.01
2016-10-18T11:45:10.803Z,20.77
2016-10-18T11:46:10.932Z,20.9
2016-10-18T11:47:25.281Z,20.91
2016-10-18T11:48:10.955Z,20.84
2016-10-18T11:49:10.701Z,20.93
2016-10-18T11:50:10.337Z,20.84
2016-10-18T11:51:10.325Z,20.91
2016-10-18T11:52:10.689Z,20.96
2016-10-18T11:53:10.698Z,20.99
2016-10-18T11:54:10.597Z,20.96
2016-10-18T11:55:10.253Z,20.98
2016-10-18T11:56:10.934Z,20.91
2016-10-18T11:57:10.182Z,20.93
2016-10-18T11:58:25.507Z,21.04
2016-10-18T11:59:10.151Z,21.02
2016-10-18T12:00:10.889Z,21.09
2016-10-18T12:01:10.922Z,21.13
2016-10-18T12:02:10.944Z,20.93
2016-10-18T12:03:10.004Z,21.05
2016-10-18T12:04:10.387Z,21.16
2016-10-18T12:05:09.992Z,20.98
2016-10-18T12:06:10.383Z,21.11
2016-10-18T12:07:10.534Z,21.09
2016-10-18T12:08:24.618Z,21.11
2016-10-18T12:09:10.033Z,21.13
2016-10-18T12:10:10.155Z,21.2
2016-10-18T12:11:10.048Z,21.29
2016-10-18T12:12:09.767Z,21.34
2016-10-18T12:13:11.004Z,21.26
2016-10-18T12:14:10.153Z,21.35
2016-10-18T12:15:10.788Z,21.35
2016-10-18T12:16:11.487Z,21.36
2016-10-18T12:17:09.662Z,21.2
2016-10-18T12:18:09.731Z,21.21
2016-10-18T12:19:10.299Z,21.17
2016-10-18T12:20:09.814Z,21.21
2016-10-18T12:21:09.615Z,21.29
2016-10-18T12:22:09.525Z,21.06
2016-10-18T12:23:09.643Z,21.01
2016-10-18T12:24:24.560Z,21.02
2016-10-18T12:25:09.655Z,20.96
2016-10-18T12:26:09.797Z,20.93
2016-10-18T12:27:09.478Z,20.91
2016-10-18T12:28:09.401Z,20.86
2016-10-18T12:29:09.648Z,21.02
2016-10-18T12:30:09.889Z,20.96
2016-10-18T12:31:09.715Z,20.89
2016-10-18T12:32:09.996Z,20.87
2016-10-18T12:33:24.005Z,20.66
2016-10-18T12:34:09.335Z,20.71
2016-10-18T12:35:23.896Z,20.74
2016-10-18T12:36:10.572Z,20.58
2016-10-18T12:37:09.791Z,20.56
2016-10-18T12:38:09.114Z,20.24
2016-10-18T12:39:09.091Z,20.3
2016-10-18T12:41:09.783Z,20.43
2016-10-18T12:43:10.197Z,20.56
2016-10-18T12:44:11.185Z,20.33
2016-10-18T12:45:10.691Z,20.27
2016-10-18T12:46:10.562Z,20.18
2016-10-18T12:47:08.946Z,20.24
2016-10-18T12:48:08.872Z,20.2
2016-10-18T12:49:09.038Z,20.1
2016-10-18T12:50:09.401Z,20.15
2016-10-18T12:51:08.834Z,20.13
2016-10-18T12:52:08.776Z,20.15
2016-10-18T12:54:09.574Z,20.27
2016-10-18T12:55:08.799Z,20.3
2016-10-18T12:56:09.285Z,20.16
2016-10-18T12:57:08.706Z,20.24
2016-10-18T12:58:08.620Z,20.34
2016-10-18T12:59:08.581Z,20.34
2016-10-18T13:00:08.971Z,20.39
2016-10-18T13:01:08.537Z,20.28
2016-10-18T13:02:09.171Z,20.28
2016-10-18T13:03:08.751Z,20.25
2016-10-18T13:04:09.110Z,20.25
2016-10-18T13:05:08.836Z,20.21
2016-10-18T13:06:09.256Z,20.12
2016-10-18T13:07:09.385Z,20.24
2016-10-18T13:08:23.064Z,20.05
2016-10-18T13:09:08.823Z,20.02
2016-10-18T13:10:09.334Z,20.12
2016-10-18T13:11:08.896Z,20.2
2016-10-18T13:12:08.253Z,20.15
2016-10-18T13:13:08.224Z,20.06
2016-10-18T13:14:08.577Z,20.05
2016-10-18T13:15:08.711Z,19.9
2016-10-18T13:16:08.142Z,20.05
2016-10-18T13:17:22.868Z,20.06
2016-10-18T13:18:08.210Z,20.13